sensor_id;sensor_type;location;lat;lon;timestamp;temperature;humidity
26408;DHT22;14583;43.604;1.364;2024-02-15T00:00:53;13.00;99.90
26408;DHT22;14583;43.604;1.364;2024-02-15T00:03:19;13.00;99.90
26408;DHT22;14583;43.604;1.364;2024-02-15T00:05:46;13.00;99.90
26408;DHT22;14583;43.604;1.364;2024-02-15T00:08:13;12.90;99.90
26408;DHT22;14583;43.604;1.364;2024-02-15T00:10:40;12.90;99.90
26408;DHT22;14583;43.604;1.364;2024-02-15T00:13:06;12.90;99.90
26408;DHT22;14583;43.604;1.364;2024-02-15T00:15:32;12.90;99.90
26408;DHT22;14583;43.604;1.364;2024-02-15T00:18:00;12.90;99.90
26408;DHT22;14583;43.604;1.364;2024-02-15T00:20:25;12.90;99.90
26408;DHT22;14583;43.604;1.364;2024-02-15T00:22:51;12.80;99.90
26408;DHT22;14583;43.604;1.364;2024-02-15T00:25:18;12.80;99.90
26408;DHT22;14583;43.604;1.364;2024-02-15T00:27:45;12.70;99.90
26408;DHT22;14583;43.604;1.364;2024-02-15T00:30:11;12.70;99.90
26408;DHT22;14583;43.604;1.364;2024-02-15T00:32:37;12.70;99.90
26408;DHT22;14583;43.604;1.364;2024-02-15T00:35:04;12.60;99.90
26408;DHT22;14583;43.604;1.364;2024-02-15T00:37:37;12.60;99.90
26408;DHT22;14583;43.604;1.364;2024-02-15T00:40:03;12.70;99.90
26408;DHT22;14583;43.604;1.364;2024-02-15T00:42:33;12.60;99.90
26408;DHT22;14583;43.604;1.364;2024-02-15T00:44:58;12.60;99.90
26408;DHT22;14583;43.604;1.364;2024-02-15T00:47:24;12.60;99.90
26408;DHT22;14583;43.604;1.364;2024-02-15T00:49:50;12.50;99.90
26408;DHT22;14583;43.604;1.364;2024-02-15T00:52:16;12.50;99.90
26408;DHT22;14583;43.604;1.364;2024-02-15T00:54:44;12.50;99.90
26408;DHT22;14583;43.604;1.364;2024-02-15T00:57:10;12.50;99.90
26408;DHT22;14583;43.604;1.364;2024-02-15T00:59:36;12.50;99.90
26408;DHT22;14583;43.604;1.364;2024-02-15T01:02:02;12.50;99.90
26408;DHT22;14583;43.604;1.364;2024-02-15T01:04:28;12.50;99.90
26408;DHT22;14583;43.604;1.364;2024-02-15T01:06:54;12.50;99.90
26408;DHT22;14583;43.604;1.364;2024-02-15T01:09:22;12.40;99.90
26408;DHT22;14583;43.604;1.364;2024-02-15T01:11:48;12.40;99.90
26408;DHT22;14583;43.604;1.364;2024-02-15T01:14:14;12.40;99.90
26408;DHT22;14583;43.604;1.364;2024-02-15T01:16:41;12.40;99.90
26408;DHT22;14583;43.604;1.364;2024-02-15T01:19:07;12.30;99.90
26408;DHT22;14583;43.604;1.364;2024-02-15T01:21:32;12.30;99.90
26408;DHT22;14583;43.604;1.364;2024-02-15T01:23:59;12.30;99.90
26408;DHT22;14583;43.604;1.364;2024-02-15T01:26:26;12.30;99.90
26408;DHT22;14583;43.604;1.364;2024-02-15T01:28:52;12.30;99.90
26408;DHT22;14583;43.604;1.364;2024-02-15T01:31:18;12.30;99.90
26408;DHT22;14583;43.604;1.364;2024-02-15T01:33:44;12.30;99.90
26408;DHT22;14583;43.604;1.364;2024-02-15T01:36:16;12.20;99.90
26408;DHT22;14583;43.604;1.364;2024-02-15T01:38:43;12.20;99.90
26408;DHT22;14583;43.604;1.364;2024-02-15T01:41:09;12.20;99.90
26408;DHT22;14583;43.604;1.364;2024-02-15T01:43:37;12.20;99.90
26408;DHT22;14583;43.604;1.364;2024-02-15T01:46:08;12.10;99.90
26408;DHT22;14583;43.604;1.364;2024-02-15T01:48:37;12.10;99.90
26408;DHT22;14583;43.604;1.364;2024-02-15T01:51:03;12.20;99.90
26408;DHT22;14583;43.604;1.364;2024-02-15T01:53:30;12.10;99.90
26408;DHT22;14583;43.604;1.364;2024-02-15T01:55:56;12.10;99.90
26408;DHT22;14583;43.604;1.364;2024-02-15T01:58:24;12.10;99.90
26408;DHT22;14583;43.604;1.364;2024-02-15T02:00:51;12.10;99.90
26408;DHT22;14583;43.604;1.364;2024-02-15T02:03:18;12.10;99.90
26408;DHT22;14583;43.604;1.364;2024-02-15T02:05:44;12.10;99.90
26408;DHT22;14583;43.604;1.364;2024-02-15T02:08:10;12.10;99.90
26408;DHT22;14583;43.604;1.364;2024-02-15T02:10:39;12.10;99.90
26408;DHT22;14583;43.604;1.364;2024-02-15T02:13:05;12.10;99.90
26408;DHT22;14583;43.604;1.364;2024-02-15T02:15:32;12.00;99.90
26408;DHT22;14583;43.604;1.364;2024-02-15T02:17:59;12.00;99.90
26408;DHT22;14583;43.604;1.364;2024-02-15T02:20:26;12.00;99.90
26408;DHT22;14583;43.604;1.364;2024-02-15T02:22:53;12.00;99.90
26408;DHT22;14583;43.604;1.364;2024-02-15T02:25:24;12.00;99.90
26408;DHT22;14583;43.604;1.364;2024-02-15T02:27:52;12.00;99.90
26408;DHT22;14583;43.604;1.364;2024-02-15T02:30:19;12.00;99.90
26408;DHT22;14583;43.604;1.364;2024-02-15T02:32:47;12.00;99.90
26408;DHT22;14583;43.604;1.364;2024-02-15T02:35:13;12.00;99.90
26408;DHT22;14583;43.604;1.364;2024-02-15T02:37:42;12.00;99.90
26408;DHT22;14583;43.604;1.364;2024-02-15T02:40:09;12.00;99.90
26408;DHT22;14583;43.604;1.364;2024-02-15T02:42:54;12.00;99.90
26408;DHT22;14583;43.604;1.364;2024-02-15T02:45:26;12.00;99.90
26408;DHT22;14583;43.604;1.364;2024-02-15T02:47:52;12.00;99.90
26408;DHT22;14583;43.604;1.364;2024-02-15T02:50:19;12.00;99.90
26408;DHT22;14583;43.604;1.364;2024-02-15T02:52:45;12.00;99.90
26408;DHT22;14583;43.604;1.364;2024-02-15T02:55:14;12.00;99.90
26408;DHT22;14583;43.604;1.364;2024-02-15T02:57:40;12.00;99.90
26408;DHT22;14583;43.604;1.364;2024-02-15T03:00:12;12.00;99.90
26408;DHT22;14583;43.604;1.364;2024-02-15T03:02:39;12.00;99.90
26408;DHT22;14583;43.604;1.364;2024-02-15T03:05:05;11.90;99.90
26408;DHT22;14583;43.604;1.364;2024-02-15T03:07:35;11.90;99.90
26408;DHT22;14583;43.604;1.364;2024-02-15T03:10:01;11.90;99.90
26408;DHT22;14583;43.604;1.364;2024-02-15T03:12:36;11.90;99.90
26408;DHT22;14583;43.604;1.364;2024-02-15T03:15:03;11.90;99.90
26408;DHT22;14583;43.604;1.364;2024-02-15T03:17:29;11.90;99.90
26408;DHT22;14583;43.604;1.364;2024-02-15T03:19:57;11.90;99.90
26408;DHT22;14583;43.604;1.364;2024-02-15T03:22:23;11.90;99.90
26408;DHT22;14583;43.604;1.364;2024-02-15T03:24:50;11.90;99.90
26408;DHT22;14583;43.604;1.364;2024-02-15T03:27:16;11.90;99.90
26408;DHT22;14583;43.604;1.364;2024-02-15T03:29:42;11.90;99.90
26408;DHT22;14583;43.604;1.364;2024-02-15T03:32:08;11.90;99.90
26408;DHT22;14583;43.604;1.364;2024-02-15T03:34:35;11.90;99.90
26408;DHT22;14583;43.604;1.364;2024-02-15T03:37:01;11.80;99.90
26408;DHT22;14583;43.604;1.364;2024-02-15T03:39:29;11.90;99.90
26408;DHT22;14583;43.604;1.364;2024-02-15T03:41:56;11.80;99.90
26408;DHT22;14583;43.604;1.364;2024-02-15T03:44:23;11.80;99.90
26408;DHT22;14583;43.604;1.364;2024-02-15T03:46:51;11.80;99.90
26408;DHT22;14583;43.604;1.364;2024-02-15T03:49:20;11.80;99.90
26408;DHT22;14583;43.604;1.364;2024-02-15T03:51:47;11.80;99.90
26408;DHT22;14583;43.604;1.364;2024-02-15T03:54:14;11.80;99.90
26408;DHT22;14583;43.604;1.364;2024-02-15T03:56:47;11.80;99.90
26408;DHT22;14583;43.604;1.364;2024-02-15T03:59:17;11.80;99.90
26408;DHT22;14583;43.604;1.364;2024-02-15T04:01:43;11.80;99.90
26408;DHT22;14583;43.604;1.364;2024-02-15T04:04:09;11.80;99.90
26408;DHT22;14583;43.604;1.364;2024-02-15T04:06:35;11.80;99.90
26408;DHT22;14583;43.604;1.364;2024-02-15T04:09:01;11.90;99.90
26408;DHT22;14583;43.604;1.364;2024-02-15T04:11:27;11.90;99.90
26408;DHT22;14583;43.604;1.364;2024-02-15T04:13:53;11.90;99.90
26408;DHT22;14583;43.604;1.364;2024-02-15T04:16:18;11.90;99.90
26408;DHT22;14583;43.604;1.364;2024-02-15T04:18:44;11.90;99.90
26408;DHT22;14583;43.604;1.364;2024-02-15T04:21:10;12.00;99.90
26408;DHT22;14583;43.604;1.364;2024-02-15T04:23:36;11.90;99.90
26408;DHT22;14583;43.604;1.364;2024-02-15T04:26:03;11.90;99.90
26408;DHT22;14583;43.604;1.364;2024-02-15T04:28:28;11.90;99.90
26408;DHT22;14583;43.604;1.364;2024-02-15T04:30:54;11.80;99.90
26408;DHT22;14583;43.604;1.364;2024-02-15T04:33:20;11.80;99.90
26408;DHT22;14583;43.604;1.364;2024-02-15T04:35:46;11.90;99.90
26408;DHT22;14583;43.604;1.364;2024-02-15T04:38:14;11.80;99.90
26408;DHT22;14583;43.604;1.364;2024-02-15T04:40:40;11.80;99.90
26408;DHT22;14583;43.604;1.364;2024-02-15T04:43:06;11.80;99.90
26408;DHT22;14583;43.604;1.364;2024-02-15T04:45:34;11.80;99.90
26408;DHT22;14583;43.604;1.364;2024-02-15T04:48:00;11.80;99.90
26408;DHT22;14583;43.604;1.364;2024-02-15T04:50:28;11.80;99.90
26408;DHT22;14583;43.604;1.364;2024-02-15T04:52:55;11.80;99.90
26408;DHT22;14583;43.604;1.364;2024-02-15T04:55:21;11.80;99.90
26408;DHT22;14583;43.604;1.364;2024-02-15T04:57:48;11.80;99.90
26408;DHT22;14583;43.604;1.364;2024-02-15T05:00:15;11.80;99.90
26408;DHT22;14583;43.604;1.364;2024-02-15T05:02:41;11.80;99.90
26408;DHT22;14583;43.604;1.364;2024-02-15T05:05:09;11.80;99.90
26408;DHT22;14583;43.604;1.364;2024-02-15T05:07:35;11.70;99.90
26408;DHT22;14583;43.604;1.364;2024-02-15T05:10:03;11.80;99.90
26408;DHT22;14583;43.604;1.364;2024-02-15T05:12:31;11.80;99.90
26408;DHT22;14583;43.604;1.364;2024-02-15T05:14:59;11.80;99.90
26408;DHT22;14583;43.604;1.364;2024-02-15T05:17:24;11.80;99.90
26408;DHT22;14583;43.604;1.364;2024-02-15T05:19:50;11.80;99.90
26408;DHT22;14583;43.604;1.364;2024-02-15T05:22:16;11.70;99.90
26408;DHT22;14583;43.604;1.364;2024-02-15T05:24:43;11.70;99.90
26408;DHT22;14583;43.604;1.364;2024-02-15T05:27:09;11.70;99.90
26408;DHT22;14583;43.604;1.364;2024-02-15T05:29:35;11.70;99.90
26408;DHT22;14583;43.604;1.364;2024-02-15T05:32:01;11.70;99.90
26408;DHT22;14583;43.604;1.364;2024-02-15T05:34:28;11.70;99.90
26408;DHT22;14583;43.604;1.364;2024-02-15T05:36:56;11.70;99.90
26408;DHT22;14583;43.604;1.364;2024-02-15T05:39:22;11.70;99.90
26408;DHT22;14583;43.604;1.364;2024-02-15T05:41:50;11.80;99.90
26408;DHT22;14583;43.604;1.364;2024-02-15T05:44:22;11.80;99.90
26408;DHT22;14583;43.604;1.364;2024-02-15T05:46:47;11.90;99.90
26408;DHT22;14583;43.604;1.364;2024-02-15T05:49:13;11.90;99.90
26408;DHT22;14583;43.604;1.364;2024-02-15T05:51:43;11.90;99.90
26408;DHT22;14583;43.604;1.364;2024-02-15T05:54:08;11.90;99.90
26408;DHT22;14583;43.604;1.364;2024-02-15T05:56:34;11.90;99.90
26408;DHT22;14583;43.604;1.364;2024-02-15T05:59:00;11.90;99.90
26408;DHT22;14583;43.604;1.364;2024-02-15T06:01:28;11.90;99.90
26408;DHT22;14583;43.604;1.364;2024-02-15T06:03:55;11.90;99.90
26408;DHT22;14583;43.604;1.364;2024-02-15T06:06:21;11.90;99.90
26408;DHT22;14583;43.604;1.364;2024-02-15T06:08:49;11.90;99.90
26408;DHT22;14583;43.604;1.364;2024-02-15T06:11:19;11.90;99.90
26408;DHT22;14583;43.604;1.364;2024-02-15T06:13:46;11.90;99.90
26408;DHT22;14583;43.604;1.364;2024-02-15T06:16:12;11.90;99.90
26408;DHT22;14583;43.604;1.364;2024-02-15T06:18:37;11.90;99.90
26408;DHT22;14583;43.604;1.364;2024-02-15T06:21:03;11.90;99.90
26408;DHT22;14583;43.604;1.364;2024-02-15T06:23:29;11.90;99.90
26408;DHT22;14583;43.604;1.364;2024-02-15T06:25:56;11.90;99.90
26408;DHT22;14583;43.604;1.364;2024-02-15T06:28:26;12.00;99.90
26408;DHT22;14583;43.604;1.364;2024-02-15T06:31:11;12.00;99.90
26408;DHT22;14583;43.604;1.364;2024-02-15T06:33:56;11.90;99.90
26408;DHT22;14583;43.604;1.364;2024-02-15T06:36:46;12.00;99.90
26408;DHT22;14583;43.604;1.364;2024-02-15T06:39:31;11.90;99.90
26408;DHT22;14583;43.604;1.364;2024-02-15T06:42:15;11.90;99.90
26408;DHT22;14583;43.604;1.364;2024-02-15T06:44:45;11.90;99.90
26408;DHT22;14583;43.604;1.364;2024-02-15T06:47:12;12.00;99.90
26408;DHT22;14583;43.604;1.364;2024-02-15T06:49:41;11.90;99.90
26408;DHT22;14583;43.604;1.364;2024-02-15T06:52:10;12.00;99.90
26408;DHT22;14583;43.604;1.364;2024-02-15T06:54:40;12.00;99.90
26408;DHT22;14583;43.604;1.364;2024-02-15T06:57:07;12.00;99.90
26408;DHT22;14583;43.604;1.364;2024-02-15T06:59:33;12.00;99.90
26408;DHT22;14583;43.604;1.364;2024-02-15T07:02:08;12.00;99.90
26408;DHT22;14583;43.604;1.364;2024-02-15T07:04:34;12.00;99.90
26408;DHT22;14583;43.604;1.364;2024-02-15T07:06:59;12.00;99.90
26408;DHT22;14583;43.604;1.364;2024-02-15T07:09:27;12.00;99.90
26408;DHT22;14583;43.604;1.364;2024-02-15T07:11:53;12.00;99.90
26408;DHT22;14583;43.604;1.364;2024-02-15T07:14:19;12.00;99.90
26408;DHT22;14583;43.604;1.364;2024-02-15T07:16:49;12.10;99.90
26408;DHT22;14583;43.604;1.364;2024-02-15T07:19:15;12.10;99.90
26408;DHT22;14583;43.604;1.364;2024-02-15T07:21:41;12.10;99.90
26408;DHT22;14583;43.604;1.364;2024-02-15T07:24:07;12.10;99.90
26408;DHT22;14583;43.604;1.364;2024-02-15T07:26:33;12.20;99.90
26408;DHT22;14583;43.604;1.364;2024-02-15T07:29:02;12.20;99.90
26408;DHT22;14583;43.604;1.364;2024-02-15T07:31:31;12.20;99.90
26408;DHT22;14583;43.604;1.364;2024-02-15T07:33:58;12.20;99.90
26408;DHT22;14583;43.604;1.364;2024-02-15T07:36:25;12.20;99.90
26408;DHT22;14583;43.604;1.364;2024-02-15T07:38:52;12.30;99.90
26408;DHT22;14583;43.604;1.364;2024-02-15T07:41:28;12.30;99.90
26408;DHT22;14583;43.604;1.364;2024-02-15T07:43:54;12.40;99.90
26408;DHT22;14583;43.604;1.364;2024-02-15T07:46:21;12.40;99.90
26408;DHT22;14583;43.604;1.364;2024-02-15T07:48:47;12.40;99.90
26408;DHT22;14583;43.604;1.364;2024-02-15T07:51:17;12.50;99.90
26408;DHT22;14583;43.604;1.364;2024-02-15T07:53:46;12.50;99.90
26408;DHT22;14583;43.604;1.364;2024-02-15T07:56:13;12.50;99.90
26408;DHT22;14583;43.604;1.364;2024-02-15T07:58:43;12.60;99.90
26408;DHT22;14583;43.604;1.364;2024-02-15T08:01:15;12.60;99.90
26408;DHT22;14583;43.604;1.364;2024-02-15T08:03:47;12.60;99.90
26408;DHT22;14583;43.604;1.364;2024-02-15T08:06:14;12.60;99.90
26408;DHT22;14583;43.604;1.364;2024-02-15T08:08:44;12.70;99.90
26408;DHT22;14583;43.604;1.364;2024-02-15T08:11:14;12.70;99.90
26408;DHT22;14583;43.604;1.364;2024-02-15T08:13:47;12.70;99.90
26408;DHT22;14583;43.604;1.364;2024-02-15T08:16:18;12.70;99.90
26408;DHT22;14583;43.604;1.364;2024-02-15T08:18:44;12.70;99.90
26408;DHT22;14583;43.604;1.364;2024-02-15T08:21:11;12.70;99.90
26408;DHT22;14583;43.604;1.364;2024-02-15T08:23:37;12.80;99.90
26408;DHT22;14583;43.604;1.364;2024-02-15T08:26:04;12.70;99.90
26408;DHT22;14583;43.604;1.364;2024-02-15T08:28:29;12.80;99.90
26408;DHT22;14583;43.604;1.364;2024-02-15T08:30:55;12.80;99.90
26408;DHT22;14583;43.604;1.364;2024-02-15T08:33:24;12.80;99.90
26408;DHT22;14583;43.604;1.364;2024-02-15T08:35:50;12.90;99.90
26408;DHT22;14583;43.604;1.364;2024-02-15T08:38:16;12.90;99.90
26408;DHT22;14583;43.604;1.364;2024-02-15T08:40:46;12.90;99.90
26408;DHT22;14583;43.604;1.364;2024-02-15T08:43:13;12.80;99.90
26408;DHT22;14583;43.604;1.364;2024-02-15T08:45:39;12.80;99.90
26408;DHT22;14583;43.604;1.364;2024-02-15T08:48:05;12.90;99.90
26408;DHT22;14583;43.604;1.364;2024-02-15T08:50:31;12.80;99.90
26408;DHT22;14583;43.604;1.364;2024-02-15T08:52:57;12.90;99.90
26408;DHT22;14583;43.604;1.364;2024-02-15T08:55:22;13.00;99.90
26408;DHT22;14583;43.604;1.364;2024-02-15T08:57:53;13.00;99.90
26408;DHT22;14583;43.604;1.364;2024-02-15T09:00:20;13.00;99.90
26408;DHT22;14583;43.604;1.364;2024-02-15T09:02:46;13.10;99.90
26408;DHT22;14583;43.604;1.364;2024-02-15T09:05:13;13.30;99.90
26408;DHT22;14583;43.604;1.364;2024-02-15T09:07:43;13.30;99.90
26408;DHT22;14583;43.604;1.364;2024-02-15T09:10:10;13.40;99.90
26408;DHT22;14583;43.604;1.364;2024-02-15T09:12:45;13.40;99.90
26408;DHT22;14583;43.604;1.364;2024-02-15T09:15:15;13.40;99.90
26408;DHT22;14583;43.604;1.364;2024-02-15T09:17:41;13.40;99.90
26408;DHT22;14583;43.604;1.364;2024-02-15T09:20:10;13.40;99.90
26408;DHT22;14583;43.604;1.364;2024-02-15T09:23:00;13.50;99.90
26408;DHT22;14583;43.604;1.364;2024-02-15T09:25:30;13.50;99.90
26408;DHT22;14583;43.604;1.364;2024-02-15T09:27:57;13.50;99.90
26408;DHT22;14583;43.604;1.364;2024-02-15T09:30:22;13.50;99.90
26408;DHT22;14583;43.604;1.364;2024-02-15T09:32:50;13.50;99.90
26408;DHT22;14583;43.604;1.364;2024-02-15T09:35:15;13.60;99.90
26408;DHT22;14583;43.604;1.364;2024-02-15T09:37:46;13.70;99.90
26408;DHT22;14583;43.604;1.364;2024-02-15T09:40:14;13.80;99.90
26408;DHT22;14583;43.604;1.364;2024-02-15T09:42:42;13.80;99.90
26408;DHT22;14583;43.604;1.364;2024-02-15T09:45:11;13.90;99.90
26408;DHT22;14583;43.604;1.364;2024-02-15T09:47:38;13.90;99.90
26408;DHT22;14583;43.604;1.364;2024-02-15T09:50:08;13.90;99.90
26408;DHT22;14583;43.604;1.364;2024-02-15T09:52:38;14.00;99.90
26408;DHT22;14583;43.604;1.364;2024-02-15T09:55:07;14.00;99.90
26408;DHT22;14583;43.604;1.364;2024-02-15T09:57:38;14.00;99.90
26408;DHT22;14583;43.604;1.364;2024-02-15T10:00:05;14.10;99.90
26408;DHT22;14583;43.604;1.364;2024-02-15T10:02:36;14.20;99.90
26408;DHT22;14583;43.604;1.364;2024-02-15T10:05:03;14.20;99.90
26408;DHT22;14583;43.604;1.364;2024-02-15T10:07:29;14.20;99.90
26408;DHT22;14583;43.604;1.364;2024-02-15T10:09:56;14.20;99.90
26408;DHT22;14583;43.604;1.364;2024-02-15T10:12:22;14.20;99.90
26408;DHT22;14583;43.604;1.364;2024-02-15T10:14:49;14.30;99.90
26408;DHT22;14583;43.604;1.364;2024-02-15T10:17:15;14.40;99.90
26408;DHT22;14583;43.604;1.364;2024-02-15T10:19:42;14.50;99.90
26408;DHT22;14583;43.604;1.364;2024-02-15T10:22:10;14.60;99.90
26408;DHT22;14583;43.604;1.364;2024-02-15T10:24:37;14.50;99.90
26408;DHT22;14583;43.604;1.364;2024-02-15T10:27:05;14.60;99.90
26408;DHT22;14583;43.604;1.364;2024-02-15T10:29:36;14.60;99.90
26408;DHT22;14583;43.604;1.364;2024-02-15T10:32:03;14.50;99.90
26408;DHT22;14583;43.604;1.364;2024-02-15T10:34:30;14.50;99.90
26408;DHT22;14583;43.604;1.364;2024-02-15T10:37:15;14.50;99.90
26408;DHT22;14583;43.604;1.364;2024-02-15T10:40:04;14.50;99.90
26408;DHT22;14583;43.604;1.364;2024-02-15T10:42:33;14.70;99.90
26408;DHT22;14583;43.604;1.364;2024-02-15T10:45:05;14.70;99.90
26408;DHT22;14583;43.604;1.364;2024-02-15T10:47:34;14.80;99.90
26408;DHT22;14583;43.604;1.364;2024-02-15T10:50:02;14.80;99.90
26408;DHT22;14583;43.604;1.364;2024-02-15T10:52:31;14.90;99.90
26408;DHT22;14583;43.604;1.364;2024-02-15T10:55:03;14.80;99.90
26408;DHT22;14583;43.604;1.364;2024-02-15T10:57:31;14.80;99.90
26408;DHT22;14583;43.604;1.364;2024-02-15T10:59:59;14.80;99.90
26408;DHT22;14583;43.604;1.364;2024-02-15T11:02:37;14.60;99.90
26408;DHT22;14583;43.604;1.364;2024-02-15T11:05:06;14.70;99.90
26408;DHT22;14583;43.604;1.364;2024-02-15T11:07:40;14.60;99.90
26408;DHT22;14583;43.604;1.364;2024-02-15T11:10:09;14.60;99.90
26408;DHT22;14583;43.604;1.364;2024-02-15T11:12:37;14.70;99.90
26408;DHT22;14583;43.604;1.364;2024-02-15T11:15:03;14.70;99.90
26408;DHT22;14583;43.604;1.364;2024-02-15T11:20:06;14.70;99.90
26408;DHT22;14583;43.604;1.364;2024-02-15T11:22:36;14.60;99.90
26408;DHT22;14583;43.604;1.364;2024-02-15T11:25:03;14.60;99.90
26408;DHT22;14583;43.604;1.364;2024-02-15T11:27:38;14.60;99.90
26408;DHT22;14583;43.604;1.364;2024-02-15T11:30:05;14.60;99.90
26408;DHT22;14583;43.604;1.364;2024-02-15T11:32:49;14.60;99.90
26408;DHT22;14583;43.604;1.364;2024-02-15T11:35:23;14.60;99.90
26408;DHT22;14583;43.604;1.364;2024-02-15T11:40:16;14.70;99.90
26408;DHT22;14583;43.604;1.364;2024-02-15T11:42:43;14.90;99.90
26408;DHT22;14583;43.604;1.364;2024-02-15T11:45:09;15.10;99.90
26408;DHT22;14583;43.604;1.364;2024-02-15T11:47:39;15.10;99.90
26408;DHT22;14583;43.604;1.364;2024-02-15T11:50:10;15.10;99.90
26408;DHT22;14583;43.604;1.364;2024-02-15T11:52:47;15.20;99.90
26408;DHT22;14583;43.604;1.364;2024-02-15T11:55:21;15.00;99.90
26408;DHT22;14583;43.604;1.364;2024-02-15T11:58:00;15.00;99.90
26408;DHT22;14583;43.604;1.364;2024-02-15T12:00:32;15.20;99.90
26408;DHT22;14583;43.604;1.364;2024-02-15T12:03:17;15.10;99.90
26408;DHT22;14583;43.604;1.364;2024-02-15T12:06:02;15.10;99.90
26408;DHT22;14583;43.604;1.364;2024-02-15T12:08:47;15.00;99.90
26408;DHT22;14583;43.604;1.364;2024-02-15T12:11:31;14.90;99.90
26408;DHT22;14583;43.604;1.364;2024-02-15T12:14:16;14.90;99.90
26408;DHT22;14583;43.604;1.364;2024-02-15T12:17:05;14.80;99.90
26408;DHT22;14583;43.604;1.364;2024-02-15T12:19:51;14.80;99.90
26408;DHT22;14583;43.604;1.364;2024-02-15T12:22:40;14.90;99.90
26408;DHT22;14583;43.604;1.364;2024-02-15T12:25:08;15.00;99.90
26408;DHT22;14583;43.604;1.364;2024-02-15T12:27:43;15.10;99.90
26408;DHT22;14583;43.604;1.364;2024-02-15T12:30:19;15.30;99.90
26408;DHT22;14583;43.604;1.364;2024-02-15T12:32:52;15.30;99.90
26408;DHT22;14583;43.604;1.364;2024-02-15T12:35:22;15.30;99.90
26408;DHT22;14583;43.604;1.364;2024-02-15T12:40:37;15.50;99.90
26408;DHT22;14583;43.604;1.364;2024-02-15T12:43:09;15.60;99.90
26408;DHT22;14583;43.604;1.364;2024-02-15T12:45:40;15.70;99.90
26408;DHT22;14583;43.604;1.364;2024-02-15T12:48:07;15.70;99.90
26408;DHT22;14583;43.604;1.364;2024-02-15T12:50:34;15.70;99.90
26408;DHT22;14583;43.604;1.364;2024-02-15T12:53:00;15.60;99.90
26408;DHT22;14583;43.604;1.364;2024-02-15T12:55:30;15.40;99.90
26408;DHT22;14583;43.604;1.364;2024-02-15T12:58:00;15.20;99.90
26408;DHT22;14583;43.604;1.364;2024-02-15T13:00:30;15.20;99.90
26408;DHT22;14583;43.604;1.364;2024-02-15T13:03:03;15.10;99.90
26408;DHT22;14583;43.604;1.364;2024-02-15T13:05:30;15.20;99.90
26408;DHT22;14583;43.604;1.364;2024-02-15T13:07:56;15.20;99.90
26408;DHT22;14583;43.604;1.364;2024-02-15T13:10:28;15.20;99.90
26408;DHT22;14583;43.604;1.364;2024-02-15T13:12:55;15.30;99.90
26408;DHT22;14583;43.604;1.364;2024-02-15T13:15:21;15.40;99.90
26408;DHT22;14583;43.604;1.364;2024-02-15T13:17:55;15.40;99.90
26408;DHT22;14583;43.604;1.364;2024-02-15T13:20:25;15.40;99.90
26408;DHT22;14583;43.604;1.364;2024-02-15T13:23:08;15.30;99.90
26408;DHT22;14583;43.604;1.364;2024-02-15T13:25:38;15.30;99.90
26408;DHT22;14583;43.604;1.364;2024-02-15T13:28:05;15.10;99.90
26408;DHT22;14583;43.604;1.364;2024-02-15T13:30:32;15.20;99.90
26408;DHT22;14583;43.604;1.364;2024-02-15T13:32:58;15.20;99.90
26408;DHT22;14583;43.604;1.364;2024-02-15T13:35:24;15.20;99.90
26408;DHT22;14583;43.604;1.364;2024-02-15T13:37:50;15.30;99.90
26408;DHT22;14583;43.604;1.364;2024-02-15T13:40:22;15.30;99.90
26408;DHT22;14583;43.604;1.364;2024-02-15T13:42:54;15.40;99.90
26408;DHT22;14583;43.604;1.364;2024-02-15T13:45:22;15.40;99.90
26408;DHT22;14583;43.604;1.364;2024-02-15T13:47:51;15.30;99.90
26408;DHT22;14583;43.604;1.364;2024-02-15T13:50:18;15.20;99.90
26408;DHT22;14583;43.604;1.364;2024-02-15T13:52:45;15.10;99.90
26408;DHT22;14583;43.604;1.364;2024-02-15T13:55:12;15.10;99.90
26408;DHT22;14583;43.604;1.364;2024-02-15T13:57:39;14.90;99.90
26408;DHT22;14583;43.604;1.364;2024-02-15T14:00:10;14.80;99.90
26408;DHT22;14583;43.604;1.364;2024-02-15T14:02:50;14.80;99.90
26408;DHT22;14583;43.604;1.364;2024-02-15T14:05:20;14.80;99.90
26408;DHT22;14583;43.604;1.364;2024-02-15T14:07:50;14.70;99.90
26408;DHT22;14583;43.604;1.364;2024-02-15T14:10:17;14.60;99.90
26408;DHT22;14583;43.604;1.364;2024-02-15T14:12:50;14.60;99.90
26408;DHT22;14583;43.604;1.364;2024-02-15T14:15:18;14.60;99.90
26408;DHT22;14583;43.604;1.364;2024-02-15T14:17:45;14.60;99.90
26408;DHT22;14583;43.604;1.364;2024-02-15T14:20:11;14.70;99.90
26408;DHT22;14583;43.604;1.364;2024-02-15T14:22:45;14.90;99.90
26408;DHT22;14583;43.604;1.364;2024-02-15T14:25:11;15.00;99.90
26408;DHT22;14583;43.604;1.364;2024-02-15T14:27:40;15.10;99.90
26408;DHT22;14583;43.604;1.364;2024-02-15T14:30:07;15.10;99.90
26408;DHT22;14583;43.604;1.364;2024-02-15T14:32:51;15.20;99.90
26408;DHT22;14583;43.604;1.364;2024-02-15T14:35:37;15.30;99.90
26408;DHT22;14583;43.604;1.364;2024-02-15T14:38:09;15.30;99.90
26408;DHT22;14583;43.604;1.364;2024-02-15T14:40:37;15.30;99.90
26408;DHT22;14583;43.604;1.364;2024-02-15T14:43:04;15.20;99.90
26408;DHT22;14583;43.604;1.364;2024-02-15T14:45:39;15.20;99.90
26408;DHT22;14583;43.604;1.364;2024-02-15T14:48:09;15.20;99.90
26408;DHT22;14583;43.604;1.364;2024-02-15T14:50:36;15.20;99.90
26408;DHT22;14583;43.604;1.364;2024-02-15T14:53:02;15.40;99.90
26408;DHT22;14583;43.604;1.364;2024-02-15T14:55:27;15.30;99.90
26408;DHT22;14583;43.604;1.364;2024-02-15T14:57:57;15.60;99.90
26408;DHT22;14583;43.604;1.364;2024-02-15T15:00:23;15.50;99.90
26408;DHT22;14583;43.604;1.364;2024-02-15T15:02:53;15.70;99.90
26408;DHT22;14583;43.604;1.364;2024-02-15T15:05:22;15.60;99.90
26408;DHT22;14583;43.604;1.364;2024-02-15T15:08:07;15.60;99.90
26408;DHT22;14583;43.604;1.364;2024-02-15T15:10:51;15.60;99.90
26408;DHT22;14583;43.604;1.364;2024-02-15T15:13:35;15.50;99.90
26408;DHT22;14583;43.604;1.364;2024-02-15T15:16:02;15.50;99.90
26408;DHT22;14583;43.604;1.364;2024-02-15T15:18:28;15.60;99.90
26408;DHT22;14583;43.604;1.364;2024-02-15T15:20:58;15.50;99.90
26408;DHT22;14583;43.604;1.364;2024-02-15T15:23:25;16.00;99.90
26408;DHT22;14583;43.604;1.364;2024-02-15T15:25:51;16.30;99.90
26408;DHT22;14583;43.604;1.364;2024-02-15T15:28:16;16.80;99.90
26408;DHT22;14583;43.604;1.364;2024-02-15T15:30:43;16.30;99.90
26408;DHT22;14583;43.604;1.364;2024-02-15T15:33:17;16.20;99.90
26408;DHT22;14583;43.604;1.364;2024-02-15T15:35:43;15.90;99.90
26408;DHT22;14583;43.604;1.364;2024-02-15T15:38:10;15.80;99.90
26408;DHT22;14583;43.604;1.364;2024-02-15T15:40:35;15.70;99.90
26408;DHT22;14583;43.604;1.364;2024-02-15T15:43:01;15.60;99.90
26408;DHT22;14583;43.604;1.364;2024-02-15T15:45:28;15.40;99.90
26408;DHT22;14583;43.604;1.364;2024-02-15T15:47:55;15.50;99.90